sensor_id;sensor_type;location;lat;lon;timestamp;P1;durP1;ratioP1;P2;durP2;ratioP2
57071;SDS011;42956;51.366;11.298;2023-03-01T00:01:39;21.77;;;11.90;;
57071;SDS011;42956;51.366;11.298;2023-03-01T00:04:07;18.50;;;11.32;;
57071;SDS011;42956;51.366;11.298;2023-03-01T00:06:35;20.70;;;11.88;;
57071;SDS011;42956;51.366;11.298;2023-03-01T00:09:04;25.27;;;11.32;;
57071;SDS011;42956;51.366;11.298;2023-03-01T00:11:33;23.27;;;12.40;;
57071;SDS011;42956;51.366;11.298;2023-03-01T00:14:01;20.60;;;11.80;;
57071;SDS011;42956;51.366;11.298;2023-03-01T00:16:32;19.50;;;12.18;;
57071;SDS011;42956;51.366;11.298;2023-03-01T00:19:01;16.75;;;10.68;;
57071;SDS011;42956;51.366;11.298;2023-03-01T00:21:29;21.02;;;12.98;;
57071;SDS011;42956;51.366;11.298;2023-03-01T00:23:57;20.23;;;12.80;;
57071;SDS011;42956;51.366;11.298;2023-03-01T00:26:25;22.48;;;11.25;;
57071;SDS011;42956;51.366;11.298;2023-03-01T00:28:56;19.48;;;11.52;;
57071;SDS011;42956;51.366;11.298;2023-03-01T00:31:25;20.02;;;11.13;;
57071;SDS011;42956;51.366;11.298;2023-03-01T00:33:53;18.83;;;11.65;;
57071;SDS011;42956;51.366;11.298;2023-03-01T00:36:24;19.60;;;11.20;;
57071;SDS011;42956;51.366;11.298;2023-03-01T00:38:52;24.52;;;11.00;;
57071;SDS011;42956;51.366;11.298;2023-03-01T00:41:20;19.83;;;11.75;;
57071;SDS011;42956;51.366;11.298;2023-03-01T00:43:49;24.20;;;11.93;;
57071;SDS011;42956;51.366;11.298;2023-03-01T00:46:19;23.17;;;12.70;;
57071;SDS011;42956;51.366;11.298;2023-03-01T00:48:47;18.50;;;11.02;;
57071;SDS011;42956;51.366;11.298;2023-03-01T00:51:16;19.23;;;12.20;;
57071;SDS011;42956;51.366;11.298;2023-03-01T00:53:45;19.02;;;11.35;;
57071;SDS011;42956;51.366;11.298;2023-03-01T00:56:13;21.25;;;11.13;;
57071;SDS011;42956;51.366;11.298;2023-03-01T00:58:42;23.27;;;11.35;;
57071;SDS011;42956;51.366;11.298;2023-03-01T01:01:11;16.92;;;9.85;;
57071;SDS011;42956;51.366;11.298;2023-03-01T01:03:46;23.05;;;12.02;;
57071;SDS011;42956;51.366;11.298;2023-03-01T01:06:18;20.10;;;11.68;;
57071;SDS011;42956;51.366;11.298;2023-03-01T01:08:46;21.65;;;11.88;;
57071;SDS011;42956;51.366;11.298;2023-03-01T01:11:15;21.63;;;12.65;;
57071;SDS011;42956;51.366;11.298;2023-03-01T01:13:43;27.40;;;13.15;;
57071;SDS011;42956;51.366;11.298;2023-03-01T01:16:12;19.23;;;12.13;;
57071;SDS011;42956;51.366;11.298;2023-03-01T01:18:40;19.83;;;12.13;;
57071;SDS011;42956;51.366;11.298;2023-03-01T01:21:10;20.50;;;12.23;;
57071;SDS011;42956;51.366;11.298;2023-03-01T01:23:38;21.38;;;11.93;;
57071;SDS011;42956;51.366;11.298;2023-03-01T01:26:08;21.98;;;11.68;;
57071;SDS011;42956;51.366;11.298;2023-03-01T01:28:36;20.42;;;11.95;;
57071;SDS011;42956;51.366;11.298;2023-03-01T01:31:04;24.17;;;11.75;;
57071;SDS011;42956;51.366;11.298;2023-03-01T01:33:32;19.90;;;10.85;;
57071;SDS011;42956;51.366;11.298;2023-03-01T01:36:00;20.63;;;10.95;;
57071;SDS011;42956;51.366;11.298;2023-03-01T01:38:29;17.73;;;10.27;;
57071;SDS011;42956;51.366;11.298;2023-03-01T01:40:57;22.63;;;10.52;;
57071;SDS011;42956;51.366;11.298;2023-03-01T01:43:26;17.23;;;11.02;;
57071;SDS011;42956;51.366;11.298;2023-03-01T01:45:55;18.85;;;10.88;;
57071;SDS011;42956;51.366;11.298;2023-03-01T01:48:24;18.55;;;10.50;;
57071;SDS011;42956;51.366;11.298;2023-03-01T01:51:08;17.15;;;9.25;;
57071;SDS011;42956;51.366;11.298;2023-03-01T01:53:38;18.90;;;11.13;;
57071;SDS011;42956;51.366;11.298;2023-03-01T01:56:07;19.33;;;10.45;;
57071;SDS011;42956;51.366;11.298;2023-03-01T01:58:36;17.33;;;9.77;;
57071;SDS011;42956;51.366;11.298;2023-03-01T02:01:05;28.27;;;9.95;;
57071;SDS011;42956;51.366;11.298;2023-03-01T02:03:33;16.58;;;9.85;;
57071;SDS011;42956;51.366;11.298;2023-03-01T02:06:04;19.27;;;11.98;;
57071;SDS011;42956;51.366;11.298;2023-03-01T02:08:35;21.67;;;12.45;;
57071;SDS011;42956;51.366;11.298;2023-03-01T02:11:05;20.25;;;12.20;;
57071;SDS011;42956;51.366;11.298;2023-03-01T02:13:34;25.38;;;13.05;;
57071;SDS011;42956;51.366;11.298;2023-03-01T02:16:03;20.92;;;12.00;;
57071;SDS011;42956;51.366;11.298;2023-03-01T02:18:31;22.35;;;12.23;;
57071;SDS011;42956;51.366;11.298;2023-03-01T02:21:03;20.83;;;11.90;;
57071;SDS011;42956;51.366;11.298;2023-03-01T02:23:32;23.17;;;12.63;;
57071;SDS011;42956;51.366;11.298;2023-03-01T02:26:03;23.80;;;12.90;;
57071;SDS011;42956;51.366;11.298;2023-03-01T02:28:35;24.10;;;13.70;;
57071;SDS011;42956;51.366;11.298;2023-03-01T02:31:04;24.52;;;13.50;;
57071;SDS011;42956;51.366;11.298;2023-03-01T02:33:50;21.00;;;11.25;;
57071;SDS011;42956;51.366;11.298;2023-03-01T02:36:19;27.52;;;13.38;;
57071;SDS011;42956;51.366;11.298;2023-03-01T02:38:47;26.85;;;13.13;;
57071;SDS011;42956;51.366;11.298;2023-03-01T02:41:16;19.98;;;11.00;;
57071;SDS011;42956;51.366;11.298;2023-03-01T02:43:46;18.17;;;10.88;;
57071;SDS011;42956;51.366;11.298;2023-03-01T02:46:15;28.33;;;12.00;;
57071;SDS011;42956;51.366;11.298;2023-03-01T02:48:45;22.33;;;10.68;;
57071;SDS011;42956;51.366;11.298;2023-03-01T02:51:24;21.02;;;9.98;;
57071;SDS011;42956;51.366;11.298;2023-03-01T02:53:55;18.85;;;9.55;;
57071;SDS011;42956;51.366;11.298;2023-03-01T02:56:24;15.48;;;9.45;;
57071;SDS011;42956;51.366;11.298;2023-03-01T02:58:53;15.75;;;9.77;;
57071;SDS011;42956;51.366;11.298;2023-03-01T03:01:21;21.15;;;11.25;;
57071;SDS011;42956;51.366;11.298;2023-03-01T03:03:49;16.20;;;10.25;;
57071;SDS011;42956;51.366;11.298;2023-03-01T03:06:17;18.63;;;9.88;;
57071;SDS011;42956;51.366;11.298;2023-03-01T03:08:46;18.13;;;10.70;;
57071;SDS011;42956;51.366;11.298;2023-03-01T03:11:13;14.82;;;10.82;;
57071;SDS011;42956;51.366;11.298;2023-03-01T03:13:41;21.20;;;11.93;;
57071;SDS011;42956;51.366;11.298;2023-03-01T03:16:16;27.38;;;12.38;;
57071;SDS011;42956;51.366;11.298;2023-03-01T03:18:44;25.58;;;14.18;;
57071;SDS011;42956;51.366;11.298;2023-03-01T03:21:12;23.52;;;13.80;;
57071;SDS011;42956;51.366;11.298;2023-03-01T03:23:40;23.48;;;12.90;;
57071;SDS011;42956;51.366;11.298;2023-03-01T03:26:08;19.52;;;11.05;;
57071;SDS011;42956;51.366;11.298;2023-03-01T03:28:39;20.77;;;10.88;;
57071;SDS011;42956;51.366;11.298;2023-03-01T03:31:07;21.95;;;13.25;;
57071;SDS011;42956;51.366;11.298;2023-03-01T03:33:37;18.55;;;10.70;;
57071;SDS011;42956;51.366;11.298;2023-03-01T03:36:05;19.77;;;9.80;;
57071;SDS011;42956;51.366;11.298;2023-03-01T03:38:33;21.25;;;11.65;;
57071;SDS011;42956;51.366;11.298;2023-03-01T03:41:01;21.33;;;11.05;;
57071;SDS011;42956;51.366;11.298;2023-03-01T03:43:30;23.45;;;13.00;;
57071;SDS011;42956;51.366;11.298;2023-03-01T03:45:59;25.38;;;11.95;;
57071;SDS011;42956;51.366;11.298;2023-03-01T03:48:27;25.20;;;12.45;;
57071;SDS011;42956;51.366;11.298;2023-03-01T03:50:56;25.13;;;12.68;;
57071;SDS011;42956;51.366;11.298;2023-03-01T03:53:28;32.40;;;14.38;;
57071;SDS011;42956;51.366;11.298;2023-03-01T03:55:56;23.73;;;14.60;;
57071;SDS011;42956;51.366;11.298;2023-03-01T03:58:25;22.00;;;12.48;;
57071;SDS011;42956;51.366;11.298;2023-03-01T04:00:54;24.17;;;12.68;;
57071;SDS011;42956;51.366;11.298;2023-03-01T04:03:23;23.17;;;13.13;;
57071;SDS011;42956;51.366;11.298;2023-03-01T04:05:51;22.55;;;12.82;;
57071;SDS011;42956;51.366;11.298;2023-03-01T04:08:21;22.83;;;12.40;;
57071;SDS011;42956;51.366;11.298;2023-03-01T04:10:50;21.05;;;12.63;;
57071;SDS011;42956;51.366;11.298;2023-03-01T04:13:18;25.52;;;12.90;;
57071;SDS011;42956;51.366;11.298;2023-03-01T04:15:48;24.75;;;12.13;;
57071;SDS011;42956;51.366;11.298;2023-03-01T04:18:16;23.45;;;12.10;;
57071;SDS011;42956;51.366;11.298;2023-03-01T04:20:44;25.20;;;12.25;;
57071;SDS011;42956;51.366;11.298;2023-03-01T04:23:14;18.30;;;10.93;;
57071;SDS011;42956;51.366;11.298;2023-03-01T04:25:45;18.63;;;11.07;;
57071;SDS011;42956;51.366;11.298;2023-03-01T04:28:13;19.65;;;11.30;;
57071;SDS011;42956;51.366;11.298;2023-03-01T04:30:41;23.17;;;12.93;;
57071;SDS011;42956;51.366;11.298;2023-03-01T04:33:09;23.38;;;11.25;;
57071;SDS011;42956;51.366;11.298;2023-03-01T04:35:37;19.70;;;10.88;;
57071;SDS011;42956;51.366;11.298;2023-03-01T04:38:05;17.92;;;9.60;;
57071;SDS011;42956;51.366;11.298;2023-03-01T04:40:33;17.10;;;10.07;;
57071;SDS011;42956;51.366;11.298;2023-03-01T04:43:03;21.95;;;10.02;;
57071;SDS011;42956;51.366;11.298;2023-03-01T04:45:31;20.35;;;10.05;;
57071;SDS011;42956;51.366;11.298;2023-03-01T04:48:01;20.92;;;11.07;;
57071;SDS011;42956;51.366;11.298;2023-03-01T04:50:29;19.38;;;10.90;;
57071;SDS011;42956;51.366;11.298;2023-03-01T04:52:56;18.70;;;10.38;;
57071;SDS011;42956;51.366;11.298;2023-03-01T04:55:26;21.75;;;9.65;;
57071;SDS011;42956;51.366;11.298;2023-03-01T04:57:54;23.35;;;11.25;;
57071;SDS011;42956;51.366;11.298;2023-03-01T05:00:23;21.23;;;11.38;;
57071;SDS011;42956;51.366;11.298;2023-03-01T05:02:52;18.58;;;9.80;;
57071;SDS011;42956;51.366;11.298;2023-03-01T05:05:24;20.73;;;10.50;;
57071;SDS011;42956;51.366;11.298;2023-03-01T05:07:53;20.20;;;10.85;;
57071;SDS011;42956;51.366;11.298;2023-03-01T05:10:22;22.42;;;10.93;;
57071;SDS011;42956;51.366;11.298;2023-03-01T05:12:50;22.77;;;10.68;;
57071;SDS011;42956;51.366;11.298;2023-03-01T05:15:19;17.42;;;10.30;;
57071;SDS011;42956;51.366;11.298;2023-03-01T05:17:49;18.63;;;10.77;;
57071;SDS011;42956;51.366;11.298;2023-03-01T05:20:17;21.02;;;12.27;;
57071;SDS011;42956;51.366;11.298;2023-03-01T05:22:49;23.70;;;11.35;;
57071;SDS011;42956;51.366;11.298;2023-03-01T05:25:17;21.38;;;12.02;;
57071;SDS011;42956;51.366;11.298;2023-03-01T05:27:45;21.33;;;11.40;;
57071;SDS011;42956;51.366;11.298;2023-03-01T05:30:13;16.98;;;11.10;;
57071;SDS011;42956;51.366;11.298;2023-03-01T05:32:41;17.88;;;10.43;;
57071;SDS011;42956;51.366;11.298;2023-03-01T05:35:13;27.38;;;12.32;;
57071;SDS011;42956;51.366;11.298;2023-03-01T05:37:41;26.10;;;12.77;;
57071;SDS011;42956;51.366;11.298;2023-03-01T05:40:10;23.08;;;12.98;;
57071;SDS011;42956;51.366;11.298;2023-03-01T05:42:42;22.48;;;12.95;;
57071;SDS011;42956;51.366;11.298;2023-03-01T05:45:10;20.67;;;12.25;;
57071;SDS011;42956;51.366;11.298;2023-03-01T05:47:39;26.60;;;12.15;;
57071;SDS011;42956;51.366;11.298;2023-03-01T05:50:11;20.60;;;10.80;;
57071;SDS011;42956;51.366;11.298;2023-03-01T05:52:40;23.65;;;11.65;;
57071;SDS011;42956;51.366;11.298;2023-03-01T05:55:08;22.00;;;11.85;;
57071;SDS011;42956;51.366;11.298;2023-03-01T05:57:37;25.50;;;11.35;;
57071;SDS011;42956;51.366;11.298;2023-03-01T06:00:06;20.40;;;11.10;;
57071;SDS011;42956;51.366;11.298;2023-03-01T06:02:34;31.23;;;13.77;;
57071;SDS011;42956;51.366;11.298;2023-03-01T06:05:02;26.65;;;14.27;;
57071;SDS011;42956;51.366;11.298;2023-03-01T06:07:31;28.17;;;14.77;;
57071;SDS011;42956;51.366;11.298;2023-03-01T06:10:00;31.27;;;14.80;;
57071;SDS011;42956;51.366;11.298;2023-03-01T06:12:29;28.92;;;14.93;;
57071;SDS011;42956;51.366;11.298;2023-03-01T06:14:58;22.10;;;13.05;;
57071;SDS011;42956;51.366;11.298;2023-03-01T06:17:25;31.75;;;14.13;;
57071;SDS011;42956;51.366;11.298;2023-03-01T06:19:54;30.15;;;15.60;;
57071;SDS011;42956;51.366;11.298;2023-03-01T06:22:21;47.25;;;17.02;;
57071;SDS011;42956;51.366;11.298;2023-03-01T06:24:49;45.28;;;16.40;;
57071;SDS011;42956;51.366;11.298;2023-03-01T06:27:18;38.17;;;17.90;;
57071;SDS011;42956;51.366;11.298;2023-03-01T06:29:46;44.70;;;18.35;;
57071;SDS011;42956;51.366;11.298;2023-03-01T06:32:14;43.22;;;19.48;;
57071;SDS011;42956;51.366;11.298;2023-03-01T06:34:42;49.53;;;19.88;;
57071;SDS011;42956;51.366;11.298;2023-03-01T06:37:10;39.08;;;18.33;;
57071;SDS011;42956;51.366;11.298;2023-03-01T06:39:38;46.92;;;19.98;;
57071;SDS011;42956;51.366;11.298;2023-03-01T06:42:07;39.42;;;19.98;;
57071;SDS011;42956;51.366;11.298;2023-03-01T06:44:36;44.67;;;18.48;;
57071;SDS011;42956;51.366;11.298;2023-03-01T06:47:04;28.92;;;16.48;;
57071;SDS011;42956;51.366;11.298;2023-03-01T06:49:32;29.98;;;15.93;;
57071;SDS011;42956;51.366;11.298;2023-03-01T06:52:00;28.05;;;16.17;;
57071;SDS011;42956;51.366;11.298;2023-03-01T06:54:28;30.02;;;15.35;;
57071;SDS011;42956;51.366;11.298;2023-03-01T06:56:56;34.75;;;15.02;;
57071;SDS011;42956;51.366;11.298;2023-03-01T06:59:24;36.28;;;17.35;;
57071;SDS011;42956;51.366;11.298;2023-03-01T07:01:53;37.40;;;16.85;;
57071;SDS011;42956;51.366;11.298;2023-03-01T07:04:21;28.67;;;15.95;;
57071;SDS011;42956;51.366;11.298;2023-03-01T07:06:49;26.50;;;14.93;;
57071;SDS011;42956;51.366;11.298;2023-03-01T07:09:22;30.85;;;14.98;;
57071;SDS011;42956;51.366;11.298;2023-03-01T07:11:50;32.20;;;17.50;;
57071;SDS011;42956;51.366;11.298;2023-03-01T07:14:17;36.45;;;18.48;;
57071;SDS011;42956;51.366;11.298;2023-03-01T07:16:46;38.88;;;20.48;;
57071;SDS011;42956;51.366;11.298;2023-03-01T07:19:15;47.92;;;23.75;;
57071;SDS011;42956;51.366;11.298;2023-03-01T07:21:43;41.78;;;20.67;;
57071;SDS011;42956;51.366;11.298;2023-03-01T07:24:11;44.45;;;22.17;;
57071;SDS011;42956;51.366;11.298;2023-03-01T07:26:39;42.70;;;23.42;;
57071;SDS011;42956;51.366;11.298;2023-03-01T07:29:07;45.25;;;23.63;;
57071;SDS011;42956;51.366;11.298;2023-03-01T07:31:35;40.33;;;20.15;;
57071;SDS011;42956;51.366;11.298;2023-03-01T07:34:03;42.13;;;19.35;;
57071;SDS011;42956;51.366;11.298;2023-03-01T07:36:32;36.90;;;18.63;;
57071;SDS011;42956;51.366;11.298;2023-03-01T07:39:00;35.53;;;19.35;;
57071;SDS011;42956;51.366;11.298;2023-03-01T07:41:29;36.30;;;19.10;;
57071;SDS011;42956;51.366;11.298;2023-03-01T07:43:57;39.15;;;19.55;;
57071;SDS011;42956;51.366;11.298;2023-03-01T07:46:25;38.70;;;20.00;;
57071;SDS011;42956;51.366;11.298;2023-03-01T07:48:53;34.83;;;19.58;;
57071;SDS011;42956;51.366;11.298;2023-03-01T07:51:21;33.22;;;17.25;;
57071;SDS011;42956;51.366;11.298;2023-03-01T07:53:50;32.83;;;17.83;;
57071;SDS011;42956;51.366;11.298;2023-03-01T07:56:18;37.95;;;16.00;;
57071;SDS011;42956;51.366;11.298;2023-03-01T07:58:47;33.08;;;15.20;;
57071;SDS011;42956;51.366;11.298;2023-03-01T08:01:17;37.30;;;17.90;;
57071;SDS011;42956;51.366;11.298;2023-03-01T08:03:45;26.95;;;12.23;;
57071;SDS011;42956;51.366;11.298;2023-03-01T08:06:14;21.88;;;12.95;;
57071;SDS011;42956;51.366;11.298;2023-03-01T08:08:42;23.73;;;11.93;;
57071;SDS011;42956;51.366;11.298;2023-03-01T08:11:12;27.90;;;12.20;;
57071;SDS011;42956;51.366;11.298;2023-03-01T08:13:41;20.98;;;11.77;;
57071;SDS011;42956;51.366;11.298;2023-03-01T08:16:10;20.20;;;11.27;;
57071;SDS011;42956;51.366;11.298;2023-03-01T08:18:39;20.75;;;12.00;;
57071;SDS011;42956;51.366;11.298;2023-03-01T08:21:07;26.02;;;13.73;;
57071;SDS011;42956;51.366;11.298;2023-03-01T08:23:35;21.42;;;12.48;;
57071;SDS011;42956;51.366;11.298;2023-03-01T08:26:04;24.75;;;11.77;;
57071;SDS011;42956;51.366;11.298;2023-03-01T08:28:40;23.98;;;11.77;;
57071;SDS011;42956;51.366;11.298;2023-03-01T08:31:16;21.08;;;11.32;;
57071;SDS011;42956;51.366;11.298;2023-03-01T08:33:44;22.13;;;11.73;;
57071;SDS011;42956;51.366;11.298;2023-03-01T08:36:17;18.00;;;12.52;;
57071;SDS011;42956;51.366;11.298;2023-03-01T08:38:45;20.10;;;13.30;;
57071;SDS011;42956;51.366;11.298;2023-03-01T08:41:12;24.98;;;12.93;;
57071;SDS011;42956;51.366;11.298;2023-03-01T08:43:42;22.75;;;12.25;;
57071;SDS011;42956;51.366;11.298;2023-03-01T08:46:10;22.63;;;12.32;;
57071;SDS011;42956;51.366;11.298;2023-03-01T08:48:38;22.08;;;12.85;;
57071;SDS011;42956;51.366;11.298;2023-03-01T08:51:07;23.73;;;13.43;;
57071;SDS011;42956;51.366;11.298;2023-03-01T08:53:35;24.52;;;12.27;;
57071;SDS011;42956;51.366;11.298;2023-03-01T08:56:03;25.83;;;12.52;;
57071;SDS011;42956;51.366;11.298;2023-03-01T08:58:32;22.90;;;12.70;;
57071;SDS011;42956;51.366;11.298;2023-03-01T09:01:04;20.83;;;12.48;;
57071;SDS011;42956;51.366;11.298;2023-03-01T09:03:33;22.55;;;11.73;;
57071;SDS011;42956;51.366;11.298;2023-03-01T09:06:02;20.90;;;12.13;;
57071;SDS011;42956;51.366;11.298;2023-03-01T09:08:30;25.55;;;13.38;;
57071;SDS011;42956;51.366;11.298;2023-03-01T09:10:58;18.98;;;11.82;;
57071;SDS011;42956;51.366;11.298;2023-03-01T09:13:28;18.02;;;11.95;;
57071;SDS011;42956;51.366;11.298;2023-03-01T09:15:57;26.25;;;11.93;;
57071;SDS011;42956;51.366;11.298;2023-03-01T09:18:26;23.73;;;11.60;;
57071;SDS011;42956;51.366;11.298;2023-03-01T09:21:00;18.60;;;11.70;;
57071;SDS011;42956;51.366;11.298;2023-03-01T09:23:28;22.58;;;12.38;;
57071;SDS011;42956;51.366;11.298;2023-03-01T09:25:55;20.55;;;10.88;;
57071;SDS011;42956;51.366;11.298;2023-03-01T09:28:23;25.27;;;11.88;;
57071;SDS011;42956;51.366;11.298;2023-03-01T09:30:57;24.08;;;12.48;;
57071;SDS011;42956;51.366;11.298;2023-03-01T09:33:26;19.80;;;11.18;;
57071;SDS011;42956;51.366;11.298;2023-03-01T09:35:58;20.77;;;10.88;;
57071;SDS011;42956;51.366;11.298;2023-03-01T09:38:26;19.15;;;10.82;;
57071;SDS011;42956;51.366;11.298;2023-03-01T09:40:54;22.42;;;10.43;;
57071;SDS011;42956;51.366;11.298;2023-03-01T09:43:23;18.98;;;12.20;;
57071;SDS011;42956;51.366;11.298;2023-03-01T09:45:53;18.35;;;10.82;;
57071;SDS011;42956;51.366;11.298;2023-03-01T09:48:23;15.82;;;10.43;;
57071;SDS011;42956;51.366;11.298;2023-03-01T09:50:54;16.30;;;10.25;;
57071;SDS011;42956;51.366;11.298;2023-03-01T09:53:25;19.48;;;10.13;;
57071;SDS011;42956;51.366;11.298;2023-03-01T09:55:54;23.33;;;12.13;;
57071;SDS011;42956;51.366;11.298;2023-03-01T09:58:27;20.23;;;11.05;;
57071;SDS011;42956;51.366;11.298;2023-03-01T10:00:57;21.13;;;11.95;;
57071;SDS011;42956;51.366;11.298;2023-03-01T10:03:27;22.35;;;11.20;;
57071;SDS011;42956;51.366;11.298;2023-03-01T10:06:01;17.92;;;11.40;;
57071;SDS011;42956;51.366;11.298;2023-03-01T10:08:33;20.35;;;11.25;;
57071;SDS011;42956;51.366;11.298;2023-03-01T10:11:03;22.02;;;11.00;;
57071;SDS011;42956;51.366;11.298;2023-03-01T10:13:33;18.10;;;10.75;;
57071;SDS011;42956;51.366;11.298;2023-03-01T10:16:03;21.13;;;10.82;;
57071;SDS011;42956;51.366;11.298;2023-03-01T10:18:33;24.42;;;10.68;;
57071;SDS011;42956;51.366;11.298;2023-03-01T10:21:09;19.65;;;11.52;;
57071;SDS011;42956;51.366;11.298;2023-03-01T10:23:40;20.13;;;11.95;;
57071;SDS011;42956;51.366;11.298;2023-03-01T10:28:59;18.80;;;11.20;;
57071;SDS011;42956;51.366;11.298;2023-03-01T10:31:32;22.27;;;11.38;;
57071;SDS011;42956;51.366;11.298;2023-03-01T10:34:07;22.95;;;11.00;;
57071;SDS011;42956;51.366;11.298;2023-03-01T10:36:39;26.60;;;10.77;;
57071;SDS011;42956;51.366;11.298;2023-03-01T10:39:11;17.63;;;10.98;;
57071;SDS011;42956;51.366;11.298;2023-03-01T10:41:44;17.95;;;11.13;;
57071;SDS011;42956;51.366;11.298;2023-03-01T10:44:34;18.55;;;10.57;;
57071;SDS011;42956;51.366;11.298;2023-03-01T10:47:02;20.60;;;11.30;;
57071;SDS011;42956;51.366;11.298;2023-03-01T10:49:30;18.98;;;9.93;;
57071;SDS011;42956;51.366;11.298;2023-03-01T10:52:10;18.67;;;11.05;;
57071;SDS011;42956;51.366;11.298;2023-03-01T10:54:39;18.13;;;10.15;;
57071;SDS011;42956;51.366;11.298;2023-03-01T10:57:09;15.23;;;8.68;;
57071;SDS011;42956;51.366;11.298;2023-03-01T11:00:00;17.70;;;11.43;;
57071;SDS011;42956;51.366;11.298;2023-03-01T11:02:30;15.75;;;9.85;;
57071;SDS011;42956;51.366;11.298;2023-03-01T11:05:00;19.48;;;10.75;;
57071;SDS011;42956;51.366;11.298;2023-03-01T11:07:29;16.02;;;10.40;;
57071;SDS011;42956;51.366;11.298;2023-03-01T11:09:57;18.73;;;10.02;;
57071;SDS011;42956;51.366;11.298;2023-03-01T11:12:25;18.73;;;10.68;;
57071;SDS011;42956;51.366;11.298;2023-03-01T11:14:56;17.15;;;9.40;;
57071;SDS011;42956;51.366;11.298;2023-03-01T11:17:27;20.08;;;9.45;;
57071;SDS011;42956;51.366;11.298;2023-03-01T11:20:04;17.80;;;10.30;;
57071;SDS011;42956;51.366;11.298;2023-03-01T11:22:35;16.75;;;9.57;;
57071;SDS011;42956;51.366;11.298;2023-03-01T11:25:03;16.15;;;9.88;;
57071;SDS011;42956;51.366;11.298;2023-03-01T11:27:36;16.02;;;9.88;;
57071;SDS011;42956;51.366;11.298;2023-03-01T11:30:07;17.35;;;9.00;;
57071;SDS011;42956;51.366;11.298;2023-03-01T11:32:41;18.98;;;9.15;;
57071;SDS011;42956;51.366;11.298;2023-03-01T11:35:12;14.38;;;8.75;;
57071;SDS011;42956;51.366;11.298;2023-03-01T11:37:45;14.60;;;9.25;;
57071;SDS011;42956;51.366;11.298;2023-03-01T11:40:20;16.58;;;8.95;;
57071;SDS011;42956;51.366;11.298;2023-03-01T11:42:52;17.48;;;10.40;;
57071;SDS011;42956;51.366;11.298;2023-03-01T11:45:23;15.25;;;8.85;;
57071;SDS011;42956;51.366;11.298;2023-03-01T11:47:58;17.58;;;9.77;;
57071;SDS011;42956;51.366;11.298;2023-03-01T11:50:30;14.57;;;9.20;;
57071;SDS011;42956;51.366;11.298;2023-03-01T11:55:50;18.67;;;9.93;;
57071;SDS011;42956;51.366;11.298;2023-03-01T12:01:35;15.18;;;9.25;;
57071;SDS011;42956;51.366;11.298;2023-03-01T12:04:20;17.38;;;10.00;;
57071;SDS011;42956;51.366;11.298;2023-03-01T12:06:54;17.60;;;9.75;;
57071;SDS011;42956;51.366;11.298;2023-03-01T12:09:36;17.60;;;9.50;;
57071;SDS011;42956;51.366;11.298;2023-03-01T12:12:16;15.27;;;9.30;;
57071;SDS011;42956;51.366;11.298;2023-03-01T12:14:48;19.23;;;9.75;;
57071;SDS011;42956;51.366;11.298;2023-03-01T12:20:13;16.73;;;9.05;;
57071;SDS011;42956;51.366;11.298;2023-03-01T12:22:44;16.45;;;9.82;;
57071;SDS011;42956;51.366;11.298;2023-03-01T12:25:16;14.55;;;8.82;;
57071;SDS011;42956;51.366;11.298;2023-03-01T12:27:51;15.52;;;9.05;;
57071;SDS011;42956;51.366;11.298;2023-03-01T12:30:29;19.08;;;10.77;;
57071;SDS011;42956;51.366;11.298;2023-03-01T12:33:05;15.80;;;9.60;;
57071;SDS011;42956;51.366;11.298;2023-03-01T12:35:36;14.55;;;9.07;;
57071;SDS011;42956;51.366;11.298;2023-03-01T12:38:11;14.77;;;9.32;;
57071;SDS011;42956;51.366;11.298;2023-03-01T12:40:45;16.25;;;8.52;;
57071;SDS011;42956;51.366;11.298;2023-03-01T12:43:19;17.23;;;9.60;;
57071;SDS011;42956;51.366;11.298;2023-03-01T12:45:55;19.00;;;8.82;;
57071;SDS011;42956;51.366;11.298;2023-03-01T12:48:30;14.65;;;8.57;;
57071;SDS011;42956;51.366;11.298;2023-03-01T12:50:59;16.23;;;8.85;;
57071;SDS011;42956;51.366;11.298;2023-03-01T12:53:29;15.77;;;8.63;;
57071;SDS011;42956;51.366;11.298;2023-03-01T12:55:59;16.90;;;8.02;;
57071;SDS011;42956;51.366;11.298;2023-03-01T12:58:31;16.33;;;9.18;;
57071;SDS011;42956;51.366;11.298;2023-03-01T13:01:18;13.20;;;7.40;;
57071;SDS011;42956;51.366;11.298;2023-03-01T13:03:56;14.07;;;7.68;;
57071;SDS011;42956;51.366;11.298;2023-03-01T13:06:29;16.38;;;7.35;;
57071;SDS011;42956;51.366;11.298;2023-03-01T13:09:11;11.82;;;7.45;;
57071;SDS011;42956;51.366;11.298;2023-03-01T13:11:42;12.32;;;8.07;;
57071;SDS011;42956;51.366;11.298;2023-03-01T13:17:04;14.82;;;7.75;;
57071;SDS011;42956;51.366;11.298;2023-03-01T13:19:32;13.80;;;8.20;;
57071;SDS011;42956;51.366;11.298;2023-03-01T13:22:24;18.73;;;7.72;;
57071;SDS011;42956;51.366;11.298;2023-03-01T13:25:00;12.35;;;8.02;;
57071;SDS011;42956;51.366;11.298;2023-03-01T13:27:28;15.45;;;8.60;;
57071;SDS011;42956;51.366;11.298;2023-03-01T13:29:57;13.48;;;7.65;;
57071;SDS011;42956;51.366;11.298;2023-03-01T13:32:32;12.13;;;7.65;;
57071;SDS011;42956;51.366;11.298;2023-03-01T13:38:04;12.95;;;7.72;;
57071;SDS011;42956;51.366;11.298;2023-03-01T13:40:57;10.95;;;6.85;;
57071;SDS011;42956;51.366;11.298;2023-03-01T13:43:31;13.30;;;7.50;;
57071;SDS011;42956;51.366;11.298;2023-03-01T13:46:00;19.15;;;8.48;;
57071;SDS011;42956;51.366;11.298;2023-03-01T13:48:31;20.83;;;9.57;;
57071;SDS011;42956;51.366;11.298;2023-03-01T13:51:00;15.98;;;8.07;;
57071;SDS011;42956;51.366;11.298;2023-03-01T13:53:31;13.38;;;8.32;;
57071;SDS011;42956;51.366;11.298;2023-03-01T13:56:01;11.73;;;6.63;;
57071;SDS011;42956;51.366;11.298;2023-03-01T13:58:30;12.93;;;7.93;;
57071;SDS011;42956;51.366;11.298;2023-03-01T14:00:59;13.18;;;7.05;;
57071;SDS011;42956;51.366;11.298;2023-03-01T14:03:28;10.75;;;6.75;;
57071;SDS011;42956;51.366;11.298;2023-03-01T14:06:03;11.57;;;6.35;;
57071;SDS011;42956;51.366;11.298;2023-03-01T14:08:41;16.17;;;6.78;;
57071;SDS011;42956;51.366;11.298;2023-03-01T14:11:23;12.77;;;6.70;;
57071;SDS011;42956;51.366;11.298;2023-03-01T14:13:55;10.80;;;5.72;;
57071;SDS011;42956;51.366;11.298;2023-03-01T14:16:30;11.05;;;5.97;;
57071;SDS011;42956;51.366;11.298;2023-03-01T14:19:05;10.00;;;5.88;;
57071;SDS011;42956;51.366;11.298;2023-03-01T14:21:35;10.05;;;6.13;;
57071;SDS011;42956;51.366;11.298;2023-03-01T14:24:04;10.85;;;6.50;;
57071;SDS011;42956;51.366;11.298;2023-03-01T14:26:32;10.68;;;6.80;;
57071;SDS011;42956;51.366;11.298;2023-03-01T14:29:03;12.25;;;6.80;;
57071;SDS011;42956;51.366;11.298;2023-03-01T14:31:37;11.82;;;6.40;;
57071;SDS011;42956;51.366;11.298;2023-03-01T14:34:19;13.00;;;6.63;;
57071;SDS011;42956;51.366;11.298;2023-03-01T14:36:49;16.60;;;7.03;;
57071;SDS011;42956;51.366;11.298;2023-03-01T14:39:18;10.98;;;7.20;;
57071;SDS011;42956;51.366;11.298;2023-03-01T14:41:46;13.23;;;6.70;;
57071;SDS011;42956;51.366;11.298;2023-03-01T14:44:15;10.73;;;5.38;;
57071;SDS011;42956;51.366;11.298;2023-03-01T14:46:45;10.38;;;5.32;;